Time;durP1;ratioP1;P1;durP2;ratioP2;P2;SDS_P1;SDS_P2;PMS_P1;PMS_P2;Temp;Humidity;BMP_temperature;BMP_pressure;BME280_temperature;BME280_humidity;BME280_pressure;Samples;Min_cycle;Max_cycle;Signal;HPM_P1;HPM_P2
2022/06/15 00:01:59;;;;;;;3.28;1.77;;;21.00;95.50;;;;;;7393209;19;20134;-72
2022/06/15 00:04:26;;;;;;;4.82;2.03;;;20.90;95.90;;;;;;7390273;19;20153;-74
2022/06/15 00:06:52;;;;;;;2.65;1.90;;;20.90;96.00;;;;;;7391606;19;20135;-72
2022/06/15 00:09:18;;;;;;;2.83;2.50;;;20.80;96.10;;;;;;7394150;19;20186;-75
2022/06/15 00:11:45;;;;;;;3.80;2.13;;;20.80;96.20;;;;;;7390123;19;20258;-75
2022/06/15 00:14:17;;;;;;;3.58;1.90;;;20.90;96.40;;;;;;7391670;19;20526;-71
2022/06/15 00:16:43;;;;;;;6.35;2.00;;;20.90;96.30;;;;;;7389247;19;20581;-72
2022/06/15 00:19:09;;;;;;;3.20;2.05;;;20.90;96.40;;;;;;7389468;19;20540;-75
2022/06/15 00:21:35;;;;;;;3.08;2.05;;;21.00;96.40;;;;;;7392720;19;20150;-76
2022/06/15 00:24:01;;;;;;;3.88;2.20;;;21.00;96.40;;;;;;7393008;19;20463;-71
2022/06/15 00:26:27;;;;;;;2.97;2.22;;;20.90;96.60;;;;;;7391399;19;20213;-76
2022/06/15 00:28:53;;;;;;;2.92;2.05;;;20.90;96.50;;;;;;7393072;19;20265;-75
2022/06/15 00:31:20;;;;;;;4.85;2.00;;;20.80;96.50;;;;;;7392348;19;20155;-75
2022/06/15 00:33:47;;;;;;;2.88;1.83;;;20.80;96.60;;;;;;7394349;19;20442;-72
2022/06/15 00:36:17;;;;;;;3.90;1.63;;;20.70;96.70;;;;;;7392018;19;20142;-76
2022/06/15 00:39:09;;;;;;;3.30;1.95;;;20.40;97.30;;;;;;7390799;19;20154;-71
2022/06/15 00:41:37;;;;;;;3.13;1.80;;;20.40;97.50;;;;;;7390214;19;20158;-75
2022/06/15 00:44:21;;;;;;;2.33;1.75;;;20.50;97.30;;;;;;7390285;19;20142;-77
2022/06/15 00:46:50;;;;;;;2.17;1.90;;;20.60;97.20;;;;;;7391204;19;20185;-75
2022/06/15 00:49:21;;;;;;;3.83;2.08;;;20.70;97.20;;;;;;7390237;19;20203;-74
2022/06/15 00:51:49;;;;;;;3.85;2.05;;;20.40;97.40;;;;;;7390091;19;20149;-72
2022/06/15 00:54:17;;;;;;;3.15;1.80;;;20.50;97.30;;;;;;7391798;19;20225;-75
2022/06/15 00:56:43;;;;;;;3.92;1.80;;;20.50;97.20;;;;;;7387914;19;20206;-72
2022/06/15 00:59:22;;;;;;;2.13;1.70;;;20.50;97.00;;;;;;7388637;19;20216;-75
2022/06/15 01:01:48;;;;;;;4.63;2.08;;;20.40;97.20;;;;;;7391252;19;20149;-74
2022/06/15 01:04:15;;;;;;;4.30;2.20;;;20.40;97.20;;;;;;7388394;19;20543;-75
2022/06/15 01:06:50;;;;;;;2.83;1.95;;;20.10;97.50;;;;;;7389267;19;20138;-74
2022/06/15 01:09:29;;;;;;;3.08;1.85;;;20.20;97.70;;;;;;7386892;19;20145;-71
2022/06/15 01:12:26;;;;;;;3.20;1.95;;;20.30;97.80;;;;;;7391002;19;20151;-71
2022/06/15 01:15:18;;;;;;;7.13;2.80;;;20.30;97.80;;;;;;7391410;19;20130;-72
2022/06/15 01:17:54;;;;;;;2.53;2.10;;;20.30;97.90;;;;;;7392302;19;20127;-75
2022/06/15 01:20:25;;;;;;;2.97;1.90;;;20.00;98.00;;;;;;7387840;19;20158;-74
2022/06/15 01:23:28;;;;;;;2.00;1.58;;;19.90;98.60;;;;;;7390470;19;20144;-71
2022/06/15 01:26:06;;;;;;;2.70;1.88;;;19.80;98.60;;;;;;7391341;19;20134;-74
2022/06/15 01:28:50;;;;;;;3.58;1.77;;;19.70;98.90;;;;;;7389894;19;20229;-75
2022/06/15 01:31:43;;;;;;;4.13;2.00;;;19.60;98.70;;;;;;7391553;19;20142;-74
2022/06/15 01:35:00;;;;;;;4.15;2.17;;;19.80;99.10;;;;;;7390130;19;20164;-75
2022/06/15 01:37:40;;;;;;;1.98;1.63;;;20.00;99.20;;;;;;7389676;19;20162;-74
2022/06/15 01:40:19;;;;;;;3.15;2.13;;;20.20;99.00;;;;;;7392394;19;20166;-76
2022/06/15 01:42:59;;;;;;;5.95;2.20;;;20.00;99.60;;;;;;7385943;19;20118;-75
2022/06/15 01:45:30;;;;;;;2.92;2.10;;;19.80;99.90;;;;;;7391783;19;20150;-72
2022/06/15 01:47:59;;;;;;;2.90;1.80;;;19.70;99.90;;;;;;7389965;19;20167;-71
2022/06/15 01:50:29;;;;;;;5.18;2.42;;;19.60;99.90;;;;;;7389402;19;20142;-74
2022/06/15 01:53:20;;;;;;;3.10;2.28;;;19.90;99.90;;;;;;7390488;19;20142;-73
2022/06/15 01:56:00;;;;;;;4.53;2.25;;;19.90;99.90;;;;;;7387284;19;20146;-74
2022/06/15 01:58:29;;;;;;;2.97;2.33;;;19.90;99.90;;;;;;7390112;19;20194;-75
2022/06/15 02:01:18;;;;;;;3.72;2.00;;;19.90;99.90;;;;;;7389024;19;20151;-75
2022/06/15 02:04:11;;;;;;;3.22;2.30;;;19.80;99.90;;;;;;7387393;19;20154;-71
2022/06/15 02:06:49;;;;;;;3.63;2.40;;;19.80;99.90;;;;;;7387303;19;20127;-73
2022/06/15 02:09:33;;;;;;;3.67;2.20;;;19.90;99.90;;;;;;7390614;19;20138;-74
2022/06/15 02:12:03;;;;;;;3.58;2.17;;;19.90;99.90;;;;;;7389737;19;20137;-72
2022/06/15 02:14:44;;;;;;;2.63;2.03;;;19.80;99.90;;;;;;7385549;19;20137;-75
2022/06/15 02:17:22;;;;;;;2.88;2.40;;;19.80;99.90;;;;;;7386975;19;20623;-74
2022/06/15 02:19:51;;;;;;;3.10;2.30;;;19.60;99.90;;;;;;7387950;19;20174;-76
2022/06/15 02:22:39;;;;;;;5.75;1.95;;;19.60;99.90;;;;;;7388002;19;20147;-75
2022/06/15 02:25:15;;;;;;;4.75;1.90;;;19.60;99.90;;;;;;7388837;19;20168;-74
2022/06/15 02:27:43;;;;;;;2.88;2.05;;;19.60;99.90;;;;;;7387700;19;20165;-72
2022/06/15 02:30:21;;;;;;;3.78;1.88;;;19.50;99.90;;;;;;7388617;19;20146;-72
2022/06/15 02:32:49;;;;;;;2.80;1.80;;;19.50;99.90;;;;;;7390381;19;20226;-74
2022/06/15 02:35:17;;;;;;;5.03;1.75;;;19.60;99.90;;;;;;7391591;19;20134;-75
2022/06/15 02:37:44;;;;;;;3.58;1.80;;;19.60;99.90;;;;;;7394995;19;20564;-75
2022/06/15 02:40:16;;;;;;;4.40;2.30;;;19.50;99.90;;;;;;7395610;19;20221;-72
2022/06/15 02:42:45;;;;;;;3.30;2.00;;;19.60;99.90;;;;;;7394496;19;20155;-74
2022/06/15 02:45:17;;;;;;;3.10;1.75;;;19.60;99.90;;;;;;7395384;19;20456;-74
2022/06/15 02:47:43;;;;;;;3.83;2.00;;;19.60;99.90;;;;;;7393870;19;20161;-75
2022/06/15 02:50:12;;;;;;;3.10;2.15;;;19.60;99.90;;;;;;7392689;19;20488;-75
2022/06/15 02:52:46;;;;;;;3.38;2.05;;;19.70;99.90;;;;;;7394341;19;20146;-72
2022/06/15 02:55:19;;;;;;;4.97;2.10;;;19.70;99.90;;;;;;7393501;19;20157;-71
2022/06/15 02:58:04;;;;;;;4.20;1.67;;;19.70;99.90;;;;;;7393491;19;20135;-75
2022/06/15 03:00:50;;;;;;;4.78;2.30;;;19.70;99.90;;;;;;7392498;19;20134;-75
2022/06/15 03:03:17;;;;;;;3.78;2.30;;;19.70;99.90;;;;;;7393008;19;20468;-72
2022/06/15 03:05:47;;;;;;;2.40;1.88;;;19.60;99.90;;;;;;7395495;19;20146;-75
2022/06/15 03:08:17;;;;;;;4.45;2.25;;;19.60;99.90;;;;;;7392744;19;20660;-75
2022/06/15 03:10:43;;;;;;;4.07;1.98;;;19.50;99.90;;;;;;7394905;19;20131;-72
2022/06/15 03:13:09;;;;;;;3.88;2.63;;;19.40;99.90;;;;;;7396456;19;20605;-73
2022/06/15 03:15:35;;;;;;;5.63;2.40;;;19.30;99.90;;;;;;7392649;19;20162;-73
2022/06/15 03:18:00;;;;;;;3.97;2.00;;;19.30;99.90;;;;;;7392214;19;20147;-72
2022/06/15 03:20:27;;;;;;;2.80;2.00;;;19.30;99.90;;;;;;7391784;19;20174;-71
2022/06/15 03:22:52;;;;;;;4.15;2.25;;;19.20;99.90;;;;;;7395314;19;20134;-74
2022/06/15 03:25:18;;;;;;;2.40;2.00;;;19.00;99.90;;;;;;7393891;19;20139;-74
2022/06/15 03:27:44;;;;;;;3.80;2.25;;;19.20;99.90;;;;;;7393698;19;20153;-73
2022/06/15 03:30:12;;;;;;;4.70;2.17;;;19.20;99.90;;;;;;7394537;19;20135;-75
2022/06/15 03:32:38;;;;;;;3.25;2.00;;;19.00;99.90;;;;;;7396738;19;20158;-76
2022/06/15 03:35:04;;;;;;;5.53;2.40;;;19.00;99.90;;;;;;7393239;19;20142;-74
2022/06/15 03:37:31;;;;;;;3.15;2.30;;;19.10;99.90;;;;;;7396232;19;20594;-71
2022/06/15 03:39:56;;;;;;;4.57;2.33;;;19.00;99.90;;;;;;7393607;19;20338;-74
2022/06/15 03:42:24;;;;;;;4.72;2.60;;;18.90;99.90;;;;;;7395519;19;20155;-75
2022/06/15 03:44:51;;;;;;;3.83;2.60;;;18.60;99.90;;;;;;7393381;19;20575;-71
2022/06/15 03:47:17;;;;;;;4.38;2.50;;;18.50;99.90;;;;;;7390404;19;20159;-72
2022/06/15 03:49:48;;;;;;;3.85;2.85;;;18.60;99.90;;;;;;7393421;19;20135;-75
2022/06/15 03:52:15;;;;;;;3.72;2.70;;;18.70;99.90;;;;;;7392428;19;20211;-72
2022/06/15 03:54:41;;;;;;;3.92;2.53;;;18.90;99.90;;;;;;7391573;19;20159;-71
2022/06/15 03:57:08;;;;;;;3.90;2.40;;;19.00;99.90;;;;;;7392070;19;20134;-71
2022/06/15 03:59:34;;;;;;;3.95;2.53;;;19.00;99.90;;;;;;7393348;19;20146;-71
2022/06/15 04:02:00;;;;;;;4.60;2.90;;;19.00;99.90;;;;;;7392071;19;20142;-71
2022/06/15 04:04:26;;;;;;;3.30;2.70;;;19.00;99.90;;;;;;7392149;19;20158;-74
2022/06/15 04:06:51;;;;;;;5.30;2.80;;;18.90;99.90;;;;;;7389448;19;20171;-74
2022/06/15 04:09:21;;;;;;;2.78;2.42;;;19.00;99.90;;;;;;7394432;19;20130;-71
2022/06/15 04:11:59;;;;;;;4.40;2.63;;;19.00;99.90;;;;;;7393180;19;20145;-71
2022/06/15 04:14:26;;;;;;;2.92;2.15;;;18.70;99.90;;;;;;7393577;19;20552;-73
2022/06/15 04:16:56;;;;;;;4.13;2.63;;;18.60;99.90;;;;;;7388186;19;20139;-75
2022/06/15 04:19:31;;;;;;;3.92;2.30;;;18.40;99.90;;;;;;7390953;19;20222;-71
2022/06/15 04:21:57;;;;;;;2.55;2.15;;;18.60;99.90;;;;;;7391462;19;20565;-74
2022/06/15 04:24:26;;;;;;;4.55;2.50;;;18.70;99.90;;;;;;7391450;19;20138;-74
2022/06/15 04:26:55;;;;;;;4.47;2.45;;;18.80;99.90;;;;;;7393109;19;20186;-75
2022/06/15 04:29:22;;;;;;;2.65;2.00;;;18.90;99.90;;;;;;7388858;19;20150;-74
2022/06/15 04:31:48;;;;;;;2.85;2.35;;;18.50;99.90;;;;;;7392854;19;20135;-71
2022/06/15 04:34:14;;;;;;;5.30;2.28;;;18.10;99.90;;;;;;7393726;19;20206;-75
2022/06/15 04:36:42;;;;;;;4.20;2.22;;;18.10;99.90;;;;;;7389122;19;20158;-75
2022/06/15 04:39:09;;;;;;;4.65;2.40;;;18.20;99.90;;;;;;7391547;19;20167;-72
2022/06/15 04:41:37;;;;;;;5.63;2.13;;;18.30;99.90;;;;;;7390139;19;20498;-72
2022/06/15 04:44:08;;;;;;;3.10;1.77;;;18.00;99.90;;;;;;7393424;19;20141;-74
2022/06/15 04:46:34;;;;;;;4.28;2.28;;;18.30;99.90;;;;;;7391455;19;20180;-74
2022/06/15 04:49:01;;;;;;;4.55;2.45;;;18.30;99.90;;;;;;7392826;19;20154;-73
2022/06/15 04:51:29;;;;;;;4.93;2.30;;;18.00;99.90;;;;;;7392998;19;20130;-71
2022/06/15 04:53:56;;;;;;;4.60;2.15;;;18.00;99.90;;;;;;7390863;19;20131;-74
2022/06/15 04:56:24;;;;;;;4.57;2.33;;;18.10;99.90;;;;;;7387697;19;20214;-74
2022/06/15 04:58:50;;;;;;;5.65;2.78;;;18.10;99.90;;;;;;7388392;19;20219;-73
2022/06/15 05:01:16;;;;;;;5.25;2.45;;;18.60;99.90;;;;;;7389005;19;20147;-74
2022/06/15 05:03:42;;;;;;;2.92;2.33;;;18.50;99.90;;;;;;7389438;19;20154;-71
2022/06/15 05:06:31;;;;;;;7.13;3.03;;;18.50;99.90;;;;;;7388941;19;20162;-76
2022/06/15 05:08:57;;;;;;;3.80;2.53;;;18.60;99.90;;;;;;7392200;19;20142;-73
2022/06/15 05:11:23;;;;;;;7.35;2.45;;;18.50;99.90;;;;;;7392067;19;20135;-71
2022/06/15 05:13:48;;;;;;;3.80;2.40;;;18.30;99.90;;;;;;7391036;19;20493;-72
2022/06/15 05:16:14;;;;;;;4.25;2.50;;;18.20;99.90;;;;;;7390397;19;20138;-74
2022/06/15 05:18:40;;;;;;;5.00;2.78;;;18.30;99.90;;;;;;7389048;19;20606;-72
2022/06/15 05:21:06;;;;;;;5.28;3.15;;;18.50;99.90;;;;;;7389475;19;20143;-73
2022/06/15 05:23:32;;;;;;;5.50;3.10;;;19.00;99.90;;;;;;7390632;19;20134;-71
2022/06/15 05:25:59;;;;;;;9.27;3.72;;;19.20;99.90;;;;;;7391405;19;20154;-74
2022/06/15 05:28:25;;;;;;;6.75;3.67;;;19.40;99.90;;;;;;7391842;19;20525;-74
2022/06/15 05:30:50;;;;;;;10.25;4.18;;;19.40;99.90;;;;;;7386880;19;20270;-74
2022/06/15 05:33:16;;;;;;;9.20;3.83;;;19.50;99.90;;;;;;7387362;19;20604;-71
2022/06/15 05:35:42;;;;;;;9.45;3.75;;;19.40;99.90;;;;;;7389415;19;20149;-76
2022/06/15 05:38:08;;;;;;;9.00;3.80;;;19.50;99.90;;;;;;7388990;19;20150;-76
2022/06/15 05:40:34;;;;;;;8.88;3.83;;;19.60;99.90;;;;;;7388006;19;20503;-75
2022/06/15 05:43:00;;;;;;;7.63;3.60;;;19.70;99.90;;;;;;7382625;19;20531;-70
2022/06/15 05:45:26;;;;;;;9.45;4.20;;;19.80;99.90;;;;;;7383989;19;20161;-70
2022/06/15 05:47:52;;;;;;;8.82;4.28;;;19.70;99.90;;;;;;7383078;19;20222;-74
2022/06/15 05:50:17;;;;;;;6.03;3.72;;;19.70;99.90;;;;;;7384259;19;20269;-71
2022/06/15 05:52:43;;;;;;;9.73;4.90;;;19.70;99.90;;;;;;7384844;19;20154;-70
2022/06/15 05:55:09;;;;;;;7.18;3.72;;;19.70;99.90;;;;;;7385110;19;20144;-74
2022/06/15 05:57:35;;;;;;;7.55;3.25;;;19.80;99.90;;;;;;7387855;19;20143;-74
2022/06/15 06:00:03;;;;;;;5.90;3.38;;;19.80;99.90;;;;;;7386213;19;20146;-74
2022/06/15 06:02:29;;;;;;;8.27;3.70;;;20.00;99.90;;;;;;7388424;19;20178;-70
2022/06/15 06:04:55;;;;;;;6.88;3.50;;;20.00;99.90;;;;;;7386493;19;20196;-70
2022/06/15 06:07:22;;;;;;;4.88;3.25;;;20.20;99.90;;;;;;7389952;19;20122;-70
2022/06/15 06:09:48;;;;;;;5.13;3.00;;;20.30;99.90;;;;;;7386051;19;20171;-69
2022/06/15 06:12:14;;;;;;;5.03;2.90;;;20.60;99.90;;;;;;7397277;19;20896;-70
2022/06/15 06:14:40;;;;;;;4.70;3.15;;;21.50;99.90;;;;;;7395966;19;20140;-72
2022/06/15 06:17:07;;;;;;;5.63;2.80;;;22.50;99.90;;;;;;7396115;19;20138;-71
2022/06/15 06:19:33;;;;;;;7.32;3.08;;;23.10;99.90;;;;;;7392871;19;20201;-73
2022/06/15 06:21:59;;;;;;;4.65;3.20;;;23.50;99.80;;;;;;7391282;19;20626;-73
2022/06/15 06:24:25;;;;;;;6.25;2.90;;;24.10;98.60;;;;;;7393020;19;20135;-72
2022/06/15 06:26:58;;;;;;;7.22;3.33;;;24.80;97.70;;;;;;7391013;19;20151;-73
2022/06/15 06:29:23;;;;;;;3.67;2.75;;;25.20;96.60;;;;;;7395924;19;20138;-72
2022/06/15 06:31:50;;;;;;;6.80;2.80;;;25.30;96.00;;;;;;7392369;19;20216;-71
2022/06/15 06:34:16;;;;;;;5.15;2.78;;;25.50;95.70;;;;;;7393107;19;20163;-71
2022/06/15 06:36:44;;;;;;;5.60;2.85;;;25.90;94.90;;;;;;7392776;19;20138;-73
2022/06/15 06:39:23;;;;;;;5.32;2.63;;;26.30;94.30;;;;;;7394549;19;20175;-73
2022/06/15 06:41:49;;;;;;;6.20;2.53;;;26.60;93.60;;;;;;7392805;19;20597;-74
2022/06/15 06:44:14;;;;;;;5.75;2.75;;;27.00;93.10;;;;;;7399109;19;20159;-71
2022/06/15 06:46:45;;;;;;;6.10;2.95;;;27.10;92.60;;;;;;7392565;19;20143;-75
2022/06/15 06:49:12;;;;;;;5.15;3.17;;;26.90;92.40;;;;;;7394204;19;20473;-73
2022/06/15 06:51:39;;;;;;;5.43;2.40;;;27.10;92.50;;;;;;7399284;19;20625;-72
2022/06/15 06:54:07;;;;;;;7.72;3.53;;;27.20;92.20;;;;;;7397274;19;20218;-75
2022/06/15 06:56:36;;;;;;;7.57;3.00;;;27.40;92.30;;;;;;7390383;19;20159;-75
2022/06/15 06:59:08;;;;;;;8.43;5.32;;;28.00;91.90;;;;;;7394644;19;20134;-73
2022/06/15 07:01:34;;;;;;;6.22;3.35;;;28.10;91.60;;;;;;7393159;19;20165;-75
2022/06/15 07:04:00;;;;;;;6.13;2.60;;;28.50;91.10;;;;;;7395470;19;20646;-75
2022/06/15 07:06:26;;;;;;;3.78;2.35;;;28.60;90.90;;;;;;7392546;19;20138;-74
2022/06/15 07:08:53;;;;;;;5.07;2.38;;;29.00;90.40;;;;;;7392735;19;20534;-74
2022/06/15 07:11:20;;;;;;;6.50;3.00;;;29.70;89.70;;;;;;7393933;19;20590;-72
2022/06/15 07:13:46;;;;;;;4.95;2.80;;;29.90;89.30;;;;;;7391283;19;20639;-75
2022/06/15 07:16:16;;;;;;;5.32;2.70;;;30.00;87.10;;;;;;7393034;19;20149;-75
2022/06/15 07:18:43;;;;;;;6.53;2.85;;;29.90;87.30;;;;;;7392504;19;20609;-75
2022/06/15 07:21:12;;;;;;;4.10;3.05;;;30.00;87.70;;;;;;7392642;19;20139;-71
2022/06/15 07:23:39;;;;;;;5.70;3.28;;;29.50;88.20;;;;;;7400629;19;20450;-72
2022/06/15 07:26:10;;;;;;;4.57;2.53;;;29.80;87.00;;;;;;7397342;19;20123;-72
2022/06/15 07:28:38;;;;;;;9.70;2.80;;;29.40;87.90;;;;;;7396234;19;20140;-75
2022/06/15 07:31:05;;;;;;;4.15;2.42;;;29.00;88.80;;;;;;7392703;19;20144;-71
2022/06/15 07:33:31;;;;;;;3.55;2.22;;;29.30;87.10;;;;;;7392561;19;20142;-75
2022/06/15 07:35:56;;;;;;;4.20;2.45;;;28.80;87.30;;;;;;7392889;19;20201;-71
2022/06/15 07:38:22;;;;;;;3.47;2.50;;;27.80;89.80;;;;;;7392624;19;20158;-72
2022/06/15 07:40:49;;;;;;;3.35;2.33;;;28.40;89.40;;;;;;7390701;19;20146;-74
2022/06/15 07:43:16;;;;;;;4.05;2.65;;;28.70;88.10;;;;;;7395302;19;20142;-75
2022/06/15 07:45:42;;;;;;;4.45;2.15;;;28.50;87.80;;;;;;7391605;19;20135;-71
2022/06/15 07:50:53;;;;;;;4.75;2.50;;;28.20;88.20;;;;;;7395770;19;20142;-75
2022/06/15 07:53:19;;;;;;;4.45;2.20;;;28.20;88.20;;;;;;7392266;19;20625;-75
2022/06/15 07:55:46;;;;;;;3.15;2.10;;;28.10;88.50;;;;;;7390379;19;20166;-75
2022/06/15 07:58:14;;;;;;;4.95;2.40;;;28.10;88.80;;;;;;7397454;19;20146;-77
2022/06/15 08:00:42;;;;;;;2.97;2.50;;;28.10;88.20;;;;;;7391100;19;20466;-73
2022/06/15 08:03:09;;;;;;;3.42;2.13;;;28.10;88.80;;;;;;7389935;19;20147;-73
2022/06/15 08:05:39;;;;;;;4.00;2.42;;;27.90;89.10;;;;;;7391932;19;20226;-76
2022/06/15 08:08:19;;;;;;;5.45;2.92;;;27.80;89.60;;;;;;7406746;19;20134;-72
2022/06/15 08:10:46;;;;;;;3.25;2.08;;;27.80;90.20;;;;;;7390832;19;20643;-74
2022/06/15 08:13:12;;;;;;;2.42;1.98;;;28.00;89.50;;;;;;7393486;19;20135;-76
2022/06/15 08:15:41;;;;;;;5.15;2.22;;;28.10;89.40;;;;;;7388295;19;20162;-72
2022/06/15 08:18:16;;;;;;;4.10;1.95;;;28.50;88.50;;;;;;7392679;19;20528;-76
2022/06/15 08:20:49;;;;;;;4.28;2.10;;;28.60;88.40;;;;;;7388155;19;20556;-72
2022/06/15 08:23:19;;;;;;;5.38;2.30;;;28.40;88.10;;;;;;7393676;19;20631;-72
2022/06/15 08:25:52;;;;;;;3.58;2.13;;;28.70;87.80;;;;;;7390524;19;20147;-76
2022/06/15 08:28:20;;;;;;;3.42;1.95;;;29.00;87.60;;;;;;7390113;19;20153;-72
2022/06/15 08:30:47;;;;;;;4.60;2.65;;;29.40;87.00;;;;;;7390506;19;20138;-71
2022/06/15 08:33:13;;;;;;;3.65;2.20;;;29.70;86.20;;;;;;7390078;19;20171;-76
2022/06/15 08:35:39;;;;;;;2.45;2.10;;;29.70;85.90;;;;;;7392658;19;20553;-72
2022/06/15 08:38:08;;;;;;;7.15;2.00;;;29.50;85.80;;;;;;7388817;19;20214;-76
2022/06/15 08:40:43;;;;;;;3.05;2.25;;;29.20;86.50;;;;;;7388851;19;20151;-72
2022/06/15 08:43:32;;;;;;;4.68;2.10;;;29.20;86.90;;;;;;7391234;19;20553;-75
2022/06/15 08:46:12;;;;;;;4.15;2.22;;;29.20;86.60;;;;;;7391466;19;20164;-76
2022/06/15 08:49:01;;;;;;;2.50;2.10;;;29.20;86.80;;;;;;7389984;19;20138;-75
2022/06/15 08:51:55;;;;;;;2.65;1.92;;;29.00;87.40;;;;;;7393287;19;20134;-71
2022/06/15 08:54:29;;;;;;;2.80;2.20;;;28.80;87.30;;;;;;7390912;19;20198;-72
2022/06/15 08:57:24;;;;;;;5.68;2.47;;;28.40;87.70;;;;;;7386371;19;20528;-72
2022/06/15 09:00:21;;;;;;;3.63;2.00;;;27.90;88.90;;;;;;7389567;19;20146;-76
2022/06/15 09:02:56;;;;;;;5.63;2.08;;;27.60;89.70;;;;;;7388748;19;20241;-74
2022/06/15 09:05:31;;;;;;;3.70;2.17;;;27.40;90.10;;;;;;7389703;19;20152;-76
2022/06/15 09:08:17;;;;;;;3.30;2.40;;;27.40;90.20;;;;;;7389506;19;20160;-72
2022/06/15 09:11:17;;;;;;;6.97;2.50;;;27.70;90.10;;;;;;7387112;19;20151;-75
2022/06/15 09:13:54;;;;;;;4.15;1.95;;;27.50;90.00;;;;;;7388070;19;20157;-71
2022/06/15 09:16:26;;;;;;;4.78;2.30;;;27.60;90.60;;;;;;7388881;19;20190;-72
2022/06/15 09:19:06;;;;;;;5.05;2.65;;;27.70;89.70;;;;;;7388738;19;20142;-76
2022/06/15 09:21:41;;;;;;;6.55;2.33;;;27.80;90.10;;;;;;7391102;19;20171;-70
2022/06/15 09:24:18;;;;;;;2.70;2.03;;;27.70;89.70;;;;;;7388851;19;20580;-75
2022/06/15 09:26:52;;;;;;;9.10;5.57;;;27.70;89.90;;;;;;7389484;19;20157;-75
2022/06/15 09:29:24;;;;;;;4.40;2.15;;;27.60;89.90;;;;;;7387610;19;20246;-76
2022/06/15 09:32:01;;;;;;;3.83;1.92;;;27.60;89.20;;;;;;7390072;19;20170;-73
2022/06/15 09:34:39;;;;;;;5.25;2.28;;;27.60;89.80;;;;;;7388635;19;20232;-74
2022/06/15 09:37:26;;;;;;;3.35;2.30;;;27.60;89.00;;;;;;7385345;19;20233;-76
2022/06/15 09:39:52;;;;;;;4.93;2.17;;;27.80;90.00;;;;;;7384838;19;20150;-73
2022/06/15 09:42:39;;;;;;;4.45;2.80;;;28.20;88.20;;;;;;7388944;19;20186;-75
2022/06/15 09:45:08;;;;;;;3.88;2.10;;;28.60;88.50;;;;;;7389685;19;20176;-71
2022/06/15 09:47:49;;;;;;;3.38;2.17;;;28.90;87.90;;;;;;7386735;19;20223;-72
2022/06/15 09:50:43;;;;;;;5.05;2.00;;;29.10;87.00;;;;;;7386887;19;20166;-76
2022/06/15 09:53:24;;;;;;;5.75;2.60;;;29.30;85.90;;;;;;7385714;19;20426;-75
2022/06/15 09:56:04;;;;;;;3.30;2.00;;;28.90;84.70;;;;;;7383022;19;20399;-76
2022/06/15 09:58:39;;;;;;;4.78;2.08;;;28.90;85.30;;;;;;7387562;19;20231;-78
2022/06/15 10:01:08;;;;;;;5.22;2.40;;;29.00;85.20;;;;;;7388183;19;20353;-76
2022/06/15 10:03:37;;;;;;;3.88;2.13;;;29.10;85.60;;;;;;7388020;19;20505;-72
2022/06/15 10:06:15;;;;;;;2.95;2.13;;;28.80;84.10;;;;;;7385286;19;20610;-73
2022/06/15 10:08:41;;;;;;;4.93;2.33;;;28.80;85.00;;;;;;7388784;19;20659;-76
2022/06/15 10:11:18;;;;;;;3.50;2.88;;;28.80;86.20;;;;;;7387300;19;20162;-74
2022/06/15 10:13:44;;;;;;;5.15;2.25;;;28.80;85.50;;;;;;7386312;19;20620;-76
2022/06/15 10:16:28;;;;;;;4.10;3.10;;;29.00;85.50;;;;;;7383218;19;20144;-73
2022/06/15 10:18:57;;;;;;;3.15;1.90;;;29.10;85.40;;;;;;7388668;19;20174;-76
2022/06/15 10:21:23;;;;;;;4.35;2.45;;;29.10;84.40;;;;;;7392125;19;20135;-77
2022/06/15 10:24:03;;;;;;;3.30;2.00;;;29.10;85.10;;;;;;7386662;19;20615;-71
2022/06/15 10:26:37;;;;;;;9.23;6.05;;;29.00;84.30;;;;;;7387386;19;20134;-77
2022/06/15 10:29:15;;;;;;;4.82;2.45;;;28.80;83.90;;;;;;7390636;19;20141;-76
2022/06/15 10:32:02;;;;;;;5.75;1.90;;;28.80;84.20;;;;;;7387289;19;20150;-72
2022/06/15 10:34:46;;;;;;;3.80;2.25;;;28.80;83.90;;;;;;7387445;19;20221;-76
2022/06/15 10:37:38;;;;;;;7.25;2.63;;;29.00;83.00;;;;;;7384838;19;20158;-73
2022/06/15 10:40:18;;;;;;;4.32;2.60;;;29.00;82.80;;;;;;7386921;19;20135;-72
2022/06/15 10:42:51;;;;;;;4.50;2.60;;;28.90;84.00;;;;;;7386336;19;20530;-72
2022/06/15 10:45:37;;;;;;;5.00;2.22;;;29.00;82.00;;;;;;7389328;19;20522;-76
2022/06/15 10:48:08;;;;;;;2.70;2.20;;;28.80;82.50;;;;;;7385747;19;20155;-75
2022/06/15 10:50:48;;;;;;;4.25;2.00;;;28.70;82.70;;;;;;7387106;19;20141;-75
2022/06/15 10:53:37;;;;;;;2.40;1.90;;;28.40;82.70;;;;;;7388539;19;20161;-76
2022/06/15 11:04:29;;;;;;;2.78;2.08;;;28.30;82.40;;;;;;7395154;19;20222;-76
2022/06/15 11:07:16;;;;;;;2.38;1.80;;;28.30;83.00;;;;;;7395735;19;20146;-76
2022/06/15 11:09:54;;;;;;;2.75;1.83;;;28.50;83.00;;;;;;7397940;19;20238;-76
2022/06/15 11:12:40;;;;;;;1.98;1.70;;;28.60;82.60;;;;;;7395492;19;20186;-73
2022/06/15 11:15:17;;;;;;;3.20;2.47;;;28.60;83.00;;;;;;7391946;19;20150;-72
2022/06/15 11:18:04;;;;;;;4.80;2.95;;;28.70;82.40;;;;;;7391113;19;20130;-75
2022/06/15 11:20:51;;;;;;;2.50;2.00;;;28.80;81.40;;;;;;7391903;19;20154;-75
2022/06/15 11:23:22;;;;;;;4.65;2.47;;;28.80;81.40;;;;;;7396599;19;20222;-75
2022/06/15 11:29:31;;;;;;;4.10;1.90;;;28.70;80.00;;;;;;7390878;19;20142;-76
2022/06/15 11:32:14;;;;;;;2.92;1.95;;;28.70;80.70;;;;;;7391452;19;20158;-71
2022/06/15 11:35:06;;;;;;;3.40;2.53;;;28.80;80.00;;;;;;7392734;19;20135;-76
2022/06/15 11:37:46;;;;;;;3.90;2.05;;;28.80;80.40;;;;;;7388904;19;20151;-72
2022/06/15 11:40:41;;;;;;;2.97;1.88;;;28.80;80.30;;;;;;7392573;19;20630;-78
2022/06/15 11:43:18;;;;;;;3.63;1.90;;;29.00;80.20;;;;;;7391516;19;20143;-75
2022/06/15 11:46:10;;;;;;;3.45;1.70;;;29.20;79.30;;;;;;7396048;19;20130;-75
2022/06/15 11:48:59;;;;;;;4.43;1.70;;;29.00;78.80;;;;;;7392513;19;20143;-76
2022/06/15 11:51:41;;;;;;;3.63;2.08;;;29.00;79.10;;;;;;7394921;19;20150;-72
2022/06/15 11:54:39;;;;;;;2.28;1.65;;;29.10;78.50;;;;;;7389767;19;20141;-75
2022/06/15 11:57:19;;;;;;;3.63;1.83;;;29.20;77.40;;;;;;7391226;19;20131;-76
2022/06/15 12:00:23;;;;;;;2.22;1.65;;;29.10;77.20;;;;;;7389028;19;20183;-72
2022/06/15 12:03:05;;;;;;;2.13;1.40;;;29.20;77.90;;;;;;7389681;19;20150;-75
2022/06/15 12:05:57;;;;;;;2.65;1.60;;;29.10;77.10;;;;;;7390792;19;20131;-71
2022/06/15 12:08:40;;;;;;;3.38;1.60;;;29.10;77.00;;;;;;7388688;19;20146;-71
2022/06/15 12:14:37;;;;;;;2.85;1.52;;;29.20;76.20;;;;;;7393548;19;20138;-72
2022/06/15 12:17:31;;;;;;;2.05;1.48;;;29.20;74.60;;;;;;7392091;19;20142;-77
2022/06/15 12:20:23;;;;;;;1.80;1.40;;;29.10;75.30;;;;;;7391377;19;20161;-76
2022/06/15 12:23:17;;;;;;;3.78;1.95;;;29.10;75.40;;;;;;7394988;19;20138;-73
2022/06/15 12:25:56;;;;;;;2.80;1.70;;;29.30;75.00;;;;;;7390426;19;20133;-76
2022/06/15 12:28:28;;;;;;;4.03;1.75;;;29.40;74.70;;;;;;7392508;19;20158;-77
2022/06/15 12:31:01;;;;;;;4.25;1.88;;;29.50;74.50;;;;;;7388492;19;20130;-75
2022/06/15 12:34:07;;;;;;;2.53;1.75;;;29.40;74.50;;;;;;7392061;19;20131;-77
2022/06/15 12:36:53;;;;;;;2.53;1.95;;;29.40;75.10;;;;;;7384347;19;20571;-76
2022/06/15 12:39:50;;;;;;;2.78;2.10;;;29.40;73.80;;;;;;7387352;19;20145;-76
2022/06/15 12:42:17;;;;;;;5.18;1.98;;;29.40;74.40;;;;;;7390509;19;20168;-72
2022/06/15 12:44:43;;;;;;;2.40;1.92;;;29.50;74.10;;;;;;7389193;19;20147;-75
2022/06/15 12:47:13;;;;;;;2.50;1.95;;;29.40;73.90;;;;;;7389451;19;20503;-77
2022/06/15 12:49:58;;;;;;;2.55;1.70;;;29.40;74.90;;;;;;7390808;19;20143;-76
2022/06/15 12:52:38;;;;;;;2.63;1.65;;;29.50;74.40;;;;;;7392930;19;20127;-71
2022/06/15 12:55:10;;;;;;;2.13;1.90;;;29.50;74.00;;;;;;7387823;19;20239;-78
2022/06/15 12:57:39;;;;;;;9.20;5.78;;;29.50;74.40;;;;;;7391379;19;20730;-77
2022/06/15 13:00:31;;;;;;;5.53;2.70;;;29.60;73.90;;;;;;7387409;19;20150;-77
2022/06/15 13:03:24;;;;;;;3.65;2.05;;;29.50;74.70;;;;;;7390298;19;20165;-72
2022/06/15 13:06:29;;;;;;;2.88;2.42;;;29.50;74.30;;;;;;7389506;19;20131;-75
2022/06/15 13:09:20;;;;;;;3.33;2.05;;;29.60;74.70;;;;;;7388417;19;20135;-71
2022/06/15 13:12:07;;;;;;;3.35;1.88;;;29.60;74.60;;;;;;7388752;19;20507;-73
2022/06/15 13:14:44;;;;;;;2.15;1.60;;;29.70;74.50;;;;;;7392341;19;20135;-72
2022/06/15 13:17:15;;;;;;;3.22;1.65;;;29.70;74.10;;;;;;7389179;19;20597;-76
2022/06/15 13:19:46;;;;;;;2.67;1.85;;;29.70;74.50;;;;;;7388052;19;20229;-76
2022/06/15 13:22:32;;;;;;;4.55;2.50;;;29.70;74.40;;;;;;7389647;19;20163;-72
2022/06/15 13:25:04;;;;;;;2.75;1.70;;;29.70;74.50;;;;;;7389387;19;20517;-76
2022/06/15 13:27:43;;;;;;;2.78;1.45;;;29.90;73.10;;;;;;7388425;19;20156;-75
2022/06/15 13:30:26;;;;;;;6.13;2.20;;;29.50;73.70;;;;;;7388638;19;20165;-75
2022/06/15 13:33:05;;;;;;;3.47;2.25;;;29.50;74.40;;;;;;7390035;19;20134;-77
2022/06/15 13:35:37;;;;;;;2.53;1.77;;;29.70;73.30;;;;;;7387288;19;20144;-71
2022/06/15 13:38:16;;;;;;;2.70;1.60;;;29.70;74.00;;;;;;7388501;19;20157;-75
2022/06/15 13:40:53;;;;;;;2.53;1.95;;;29.70;73.70;;;;;;7388039;19;20142;-75